createdAt,value
2018-07-11T00:01:39.770Z,2.27
2018-07-11T00:04:07.873Z,2.40
2018-07-11T00:06:36.302Z,3.57
2018-07-11T00:09:05.040Z,2.30
2018-07-11T00:11:33.472Z,2.33
2018-07-11T00:14:01.866Z,1.93
2018-07-11T00:16:29.880Z,2.10
2018-07-11T00:18:58.456Z,2.73
2018-07-11T00:21:26.793Z,2.13
2018-07-11T00:23:55.178Z,2.90
2018-07-11T00:26:24.028Z,2.63
2018-07-11T00:28:52.731Z,2.50
2018-07-11T00:31:21.138Z,2.50
2018-07-11T00:33:49.537Z,2.00
2018-07-11T00:36:17.935Z,2.30
2018-07-11T00:38:47.054Z,1.97
2018-07-11T00:41:15.666Z,2.13
2018-07-11T00:43:44.059Z,2.40
2018-07-11T00:46:13.095Z,2.50
2018-07-11T00:48:41.530Z,2.40
2018-07-11T00:51:09.638Z,2.30
2018-07-11T00:53:38.113Z,2.53
2018-07-11T00:56:06.459Z,2.53
2018-07-11T00:58:44.799Z,2.33
2018-07-11T01:01:14.548Z,2.33
2018-07-11T01:03:48.405Z,2.30
2018-07-11T01:06:17.113Z,2.07
2018-07-11T01:08:45.492Z,2.50
2018-07-11T01:11:15.930Z,2.17
2018-07-11T01:13:45.463Z,2.23
2018-07-11T01:16:15.118Z,2.20
2018-07-11T01:18:54.654Z,3.87
2018-07-11T01:21:23.027Z,2.40
2018-07-11T01:23:51.346Z,2.80
2018-07-11T01:26:24.231Z,2.30
2018-07-11T01:28:52.873Z,2.30
2018-07-11T01:31:21.395Z,2.83
2018-07-11T01:33:49.823Z,2.47
2018-07-11T01:36:18.467Z,2.50
2018-07-11T01:38:46.924Z,2.33
2018-07-11T01:41:15.655Z,2.60
2018-07-11T01:43:44.529Z,2.70
2018-07-11T01:46:12.918Z,4.00
2018-07-11T01:48:41.364Z,2.80
2018-07-11T01:51:09.866Z,3.10
2018-07-11T01:53:38.223Z,2.83
2018-07-11T01:56:06.601Z,2.90
2018-07-11T01:58:35.036Z,3.10
2018-07-11T02:01:04.199Z,2.97
2018-07-11T02:03:32.708Z,2.90
2018-07-11T02:06:01.224Z,3.00
2018-07-11T02:08:29.756Z,4.47
2018-07-11T02:10:58.411Z,2.80
2018-07-11T02:13:27.230Z,4.60
2018-07-11T02:15:55.647Z,2.90
2018-07-11T02:18:25.745Z,3.40
2018-07-11T02:20:54.822Z,2.70
2018-07-11T02:23:23.945Z,3.17
2018-07-11T02:25:52.006Z,3.63
2018-07-11T02:28:20.709Z,4.77
2018-07-11T02:30:48.766Z,4.30
2018-07-11T02:33:17.108Z,4.63
2018-07-11T02:35:45.514Z,4.10
2018-07-11T02:38:13.843Z,4.03
2018-07-11T02:40:42.207Z,4.47
2018-07-11T02:43:10.667Z,4.37
2018-07-11T02:45:39.035Z,3.73
2018-07-11T02:48:07.435Z,3.57
2018-07-11T02:50:35.916Z,3.63
2018-07-11T02:53:03.941Z,3.50
2018-07-11T02:55:32.309Z,4.25
2018-07-11T02:58:00.667Z,3.47
2018-07-11T03:00:29.014Z,3.63
2018-07-11T03:02:57.456Z,3.60
2018-07-11T03:05:25.784Z,3.50
2018-07-11T03:07:54.177Z,3.67
2018-07-11T03:10:22.594Z,3.55
2018-07-11T03:12:51.001Z,3.22
2018-07-11T03:15:19.384Z,3.55
2018-07-11T03:17:47.444Z,5.60
2018-07-11T03:20:15.860Z,2.77
2018-07-11T03:22:44.295Z,3.37
2018-07-11T03:25:12.687Z,3.60
2018-07-11T03:27:41.108Z,3.15
2018-07-11T03:30:09.446Z,3.98
2018-07-11T03:32:37.873Z,3.08
2018-07-11T03:35:06.209Z,3.30
2018-07-11T03:37:34.310Z,3.87
2018-07-11T03:40:02.687Z,3.25
2018-07-11T03:42:31.021Z,2.90
2018-07-11T03:44:59.439Z,3.08
2018-07-11T03:47:27.481Z,2.50
2018-07-11T03:49:55.890Z,2.62
2018-07-11T03:52:24.305Z,3.63
2018-07-11T03:54:52.675Z,3.40
2018-07-11T03:57:21.033Z,3.17
2018-07-11T03:59:49.746Z,6.27
2018-07-11T04:02:18.045Z,3.27
2018-07-11T04:04:46.465Z,3.83
2018-07-11T04:07:14.850Z,3.77
2018-07-11T04:09:43.227Z,4.03
2018-07-11T04:12:11.315Z,3.80
2018-07-11T04:14:39.669Z,4.00
2018-07-11T04:17:07.727Z,3.47
2018-07-11T04:19:36.090Z,5.10
2018-07-11T04:22:04.600Z,4.73
2018-07-11T04:24:32.717Z,4.13
2018-07-11T04:27:01.168Z,4.40
2018-07-11T04:29:31.252Z,6.07
2018-07-11T04:31:59.664Z,5.83
2018-07-11T04:34:28.035Z,5.80
2018-07-11T04:36:56.098Z,6.23
2018-07-11T04:39:24.237Z,6.30
2018-07-11T04:41:52.958Z,6.40
2018-07-11T04:44:21.019Z,6.43
2018-07-11T04:46:49.426Z,6.93
2018-07-11T04:49:17.834Z,9.00
2018-07-11T04:51:46.546Z,6.90
2018-07-11T04:54:14.908Z,7.03
2018-07-11T04:56:43.372Z,6.73
2018-07-11T04:59:11.764Z,7.10
2018-07-11T05:01:40.119Z,7.17
2018-07-11T05:04:08.506Z,7.27
2018-07-11T05:06:36.852Z,6.80
2018-07-11T05:09:05.586Z,6.57
2018-07-11T05:11:33.981Z,5.80
2018-07-11T05:14:02.363Z,5.83
2018-07-11T05:16:30.726Z,8.17
2018-07-11T05:18:59.035Z,6.63
2018-07-11T05:21:27.345Z,6.90
2018-07-11T05:23:55.723Z,5.80
2018-07-11T05:26:24.081Z,6.10
2018-07-11T05:28:52.118Z,6.87
2018-07-11T05:31:20.512Z,7.17
2018-07-11T05:33:48.869Z,7.00
2018-07-11T05:36:17.250Z,7.20
2018-07-11T05:38:45.598Z,6.83
2018-07-11T05:41:13.956Z,8.03
2018-07-11T05:43:42.331Z,6.83
2018-07-11T05:46:10.373Z,7.47
2018-07-11T05:48:38.717Z,7.63
2018-07-11T05:51:07.059Z,6.83
2018-07-11T05:53:35.398Z,8.63
2018-07-11T05:56:03.784Z,9.27
2018-07-11T05:58:32.147Z,7.80
2018-07-11T06:01:00.465Z,8.07
2018-07-11T06:03:28.835Z,12.10
2018-07-11T06:05:57.179Z,9.67
2018-07-11T06:08:25.569Z,11.00
2018-07-11T06:10:53.974Z,11.50
2018-07-11T06:13:22.366Z,11.77
2018-07-11T06:15:51.533Z,11.23
2018-07-11T06:18:20.561Z,9.43
2018-07-11T06:20:48.693Z,11.37
2018-07-11T06:23:17.008Z,13.73
2018-07-11T06:25:45.327Z,12.93
2018-07-11T06:28:13.682Z,11.23
2018-07-11T06:30:42.060Z,11.57
2018-07-11T06:33:10.394Z,13.50
2018-07-11T06:35:38.733Z,12.47
2018-07-11T06:38:07.116Z,13.07
2018-07-11T06:40:35.471Z,12.13
2018-07-11T06:43:03.928Z,12.07
2018-07-11T06:45:32.276Z,13.77
2018-07-11T06:48:00.809Z,12.33
2018-07-11T06:50:29.082Z,13.97
2018-07-11T06:52:57.437Z,13.53
2018-07-11T06:55:25.795Z,14.93
2018-07-11T06:57:54.166Z,12.87
2018-07-11T07:00:22.560Z,13.33
2018-07-11T07:02:50.939Z,13.23
2018-07-11T07:05:19.343Z,13.63
2018-07-11T07:07:47.422Z,12.80
2018-07-11T07:10:15.510Z,13.00
2018-07-11T07:12:43.897Z,14.47
2018-07-11T07:15:12.357Z,13.20
2018-07-11T07:17:40.757Z,13.77
2018-07-11T07:20:09.113Z,14.40
2018-07-11T07:22:37.557Z,13.03
2018-07-11T07:25:05.653Z,13.60
2018-07-11T07:27:33.760Z,11.90
2018-07-11T07:30:02.219Z,12.30
2018-07-11T07:32:30.277Z,14.03
2018-07-11T07:34:58.681Z,13.27
2018-07-11T07:37:27.082Z,13.00
2018-07-11T07:39:55.425Z,13.83
2018-07-11T07:42:23.530Z,12.10
2018-07-11T07:44:51.960Z,12.37
2018-07-11T07:47:25.613Z,12.43
2018-07-11T07:49:54.067Z,13.13
2018-07-11T07:52:22.435Z,13.53
2018-07-11T07:54:50.871Z,13.37
2018-07-11T07:57:19.452Z,14.13
2018-07-11T07:59:48.225Z,13.80
2018-07-11T08:02:16.632Z,13.03
2018-07-11T08:04:45.954Z,13.03
2018-07-11T08:07:14.293Z,13.23
2018-07-11T08:09:42.637Z,12.40
2018-07-11T08:12:10.983Z,12.67
2018-07-11T08:14:39.302Z,12.17
2018-07-11T08:17:07.667Z,12.63
2018-07-11T08:19:36.005Z,13.60
2018-07-11T08:23:14.432Z,13.33
2018-07-11T08:25:55.482Z,12.57
2018-07-11T08:28:35.011Z,13.23
2018-07-11T08:31:15.054Z,13.17
2018-07-11T08:35:58.454Z,11.87
2018-07-11T08:40:43.013Z,10.60
2018-07-11T08:47:28.846Z,10.40
2018-07-11T08:50:20.647Z,12.57
2018-07-11T08:53:02.040Z,11.23
2018-07-11T08:57:39.206Z,11.47
2018-07-11T09:00:26.042Z,11.03
2018-07-11T09:03:07.802Z,11.07
2018-07-11T09:08:51.623Z,10.93
2018-07-11T09:11:49.919Z,9.50
2018-07-11T09:14:42.598Z,9.70
2018-07-11T09:17:26.301Z,8.83
2018-07-11T09:23:10.609Z,10.23
2018-07-11T09:25:39.061Z,7.90
2018-07-11T09:28:07.471Z,8.80
2018-07-11T09:30:35.823Z,8.73
2018-07-11T09:33:03.903Z,9.33
2018-07-11T09:35:32.358Z,9.17
2018-07-11T09:38:00.411Z,7.80
2018-07-11T09:40:28.725Z,7.13
2018-07-11T09:42:56.801Z,8.37
2018-07-11T09:45:25.307Z,7.97
2018-07-11T09:47:53.695Z,6.30
2018-07-11T09:50:22.467Z,7.20
2018-07-11T09:52:50.867Z,6.30
2018-07-11T09:55:19.250Z,6.10
2018-07-11T09:57:47.741Z,6.27
2018-07-11T10:00:21.452Z,5.47
2018-07-11T10:02:49.870Z,9.60
2018-07-11T10:05:18.325Z,6.30
2018-07-11T10:07:46.665Z,5.13
2018-07-11T10:10:15.011Z,3.90
2018-07-11T10:12:43.440Z,4.20
2018-07-11T10:15:11.775Z,5.37
2018-07-11T10:17:40.168Z,4.37
2018-07-11T10:20:08.801Z,4.15
2018-07-11T10:22:37.172Z,6.57
2018-07-11T10:25:05.571Z,5.57
2018-07-11T10:27:33.989Z,4.03
2018-07-11T10:30:02.564Z,5.27
2018-07-11T10:32:30.947Z,5.23
2018-07-11T10:34:59.362Z,6.63
2018-07-11T10:37:27.803Z,4.10
2018-07-11T10:39:56.118Z,4.43
2018-07-11T10:42:24.571Z,4.90
2018-07-11T10:44:52.976Z,4.50
2018-07-11T10:47:21.473Z,3.83
2018-07-11T10:49:49.835Z,4.50
2018-07-11T10:52:18.207Z,4.87
2018-07-11T10:54:46.544Z,3.93
2018-07-11T10:57:14.918Z,3.80
2018-07-11T10:59:43.598Z,2.80
2018-07-11T11:02:12.256Z,3.73
2018-07-11T11:04:40.642Z,4.57
2018-07-11T11:07:09.084Z,3.20
2018-07-11T11:09:37.455Z,5.20
2018-07-11T11:12:05.884Z,3.50
2018-07-11T11:14:34.250Z,4.33
2018-07-11T11:17:02.630Z,3.20
2018-07-11T11:19:31.045Z,5.73
2018-07-11T11:21:59.444Z,3.80
2018-07-11T11:24:27.784Z,2.70
2018-07-11T11:26:56.181Z,3.80
2018-07-11T11:29:26.291Z,3.00
2018-07-11T11:31:54.777Z,5.33
2018-07-11T11:34:23.142Z,4.03
2018-07-11T11:36:51.247Z,6.43
2018-07-11T11:39:19.639Z,5.33
2018-07-11T11:41:48.172Z,3.70
2018-07-11T11:44:16.482Z,4.77
2018-07-11T11:46:44.831Z,5.63
2018-07-11T11:49:12.916Z,5.63
2018-07-11T11:51:41.261Z,3.73
2018-07-11T11:54:09.683Z,3.97
2018-07-11T11:56:38.107Z,4.37
2018-07-11T11:59:06.491Z,5.00
2018-07-11T12:01:34.828Z,3.57
2018-07-11T12:04:03.165Z,5.50
2018-07-11T12:06:31.518Z,3.17
2018-07-11T12:08:59.847Z,3.87
2018-07-11T12:11:28.298Z,3.20
2018-07-11T12:13:56.660Z,3.23
2018-07-11T12:16:25.060Z,4.70
2018-07-11T12:18:53.517Z,5.00
2018-07-11T12:21:21.913Z,3.60
2018-07-11T12:23:50.295Z,2.90
2018-07-11T12:26:18.674Z,2.87
2018-07-11T12:28:47.132Z,5.67
2018-07-11T12:31:15.643Z,3.23
2018-07-11T12:33:44.125Z,2.70
2018-07-11T12:36:12.460Z,3.90
2018-07-11T12:38:40.927Z,2.30
2018-07-11T12:41:09.289Z,2.00
2018-07-11T12:43:37.670Z,3.20
2018-07-11T12:46:06.082Z,4.30
2018-07-11T12:48:39.743Z,2.20
2018-07-11T12:51:07.829Z,1.83
2018-07-11T12:53:36.257Z,3.20
2018-07-11T12:56:04.690Z,3.17
2018-07-11T12:58:33.153Z,3.20
2018-07-11T13:01:01.487Z,2.53
2018-07-11T13:03:30.541Z,2.67
2018-07-11T13:05:58.905Z,1.53
2018-07-11T13:08:27.296Z,1.17
2018-07-11T13:10:55.610Z,2.90
2018-07-11T13:13:23.966Z,2.10
2018-07-11T13:15:52.391Z,3.90
2018-07-11T13:18:20.796Z,0.97
2018-07-11T13:20:48.874Z,2.63
2018-07-11T13:23:17.318Z,1.30
2018-07-11T13:25:45.646Z,3.33
2018-07-11T13:28:14.085Z,1.87
2018-07-11T13:30:42.511Z,2.93
2018-07-11T13:33:10.901Z,2.03
2018-07-11T13:35:39.285Z,1.40
2018-07-11T13:38:10.514Z,1.30
2018-07-11T13:40:38.891Z,2.30
2018-07-11T13:43:07.386Z,1.70
2018-07-11T13:45:36.515Z,2.67
2018-07-11T13:48:04.859Z,4.03
2018-07-11T13:50:34.359Z,3.33
2018-07-11T13:53:03.098Z,3.43
2018-07-11T13:55:32.275Z,1.40
2018-07-11T13:58:01.957Z,1.87
2018-07-11T14:00:31.066Z,1.90
2018-07-11T14:02:59.434Z,1.90
2018-07-11T14:05:27.783Z,3.83
2018-07-11T14:07:56.176Z,1.77
2018-07-11T14:10:24.557Z,2.80
2018-07-11T14:12:52.972Z,1.13
2018-07-11T14:15:21.386Z,2.23
2018-07-11T14:17:49.437Z,2.40
2018-07-11T14:20:17.846Z,1.77
2018-07-11T14:22:47.995Z,1.67
2018-07-11T14:25:17.046Z,1.40
2018-07-11T14:27:46.659Z,2.67
2018-07-11T14:30:15.033Z,2.60
2018-07-11T14:32:48.944Z,3.07
2018-07-11T14:35:17.822Z,2.67
2018-07-11T14:37:47.123Z,2.83
2018-07-11T14:40:15.592Z,1.87
2018-07-11T14:42:44.767Z,3.13
2018-07-11T14:45:13.218Z,2.60
2018-07-11T14:47:47.080Z,1.87
2018-07-11T14:50:15.552Z,1.93
2018-07-11T14:52:44.007Z,2.53
2018-07-11T14:55:12.448Z,3.03
2018-07-11T14:57:40.865Z,2.93
2018-07-11T15:00:09.299Z,2.30
2018-07-11T15:02:37.754Z,4.30
2018-07-11T15:05:06.557Z,2.37
2018-07-11T15:07:35.715Z,4.13
2018-07-11T15:10:04.117Z,1.97
2018-07-11T15:12:32.565Z,2.60
2018-07-11T15:15:00.999Z,2.67
2018-07-11T15:17:30.603Z,3.50
2018-07-11T15:19:59.093Z,2.17
2018-07-11T15:22:27.400Z,3.57
2018-07-11T15:24:55.861Z,3.77
2018-07-11T15:27:24.110Z,3.93
2018-07-11T15:29:52.565Z,4.37
2018-07-11T15:32:21.071Z,3.70
2018-07-11T15:34:49.455Z,4.10
2018-07-11T15:37:17.814Z,4.00
2018-07-11T15:39:46.186Z,2.57
2018-07-11T15:42:14.634Z,3.77
2018-07-11T15:44:43.383Z,4.90
2018-07-11T15:47:12.625Z,2.97
2018-07-11T15:49:41.121Z,3.33
2018-07-11T15:52:10.403Z,3.17
2018-07-11T15:54:39.271Z,4.53
2018-07-11T15:57:07.358Z,4.20
2018-07-11T15:59:39.548Z,4.43
2018-07-11T16:02:07.930Z,3.27
2018-07-11T16:04:40.290Z,3.23
2018-07-11T16:07:09.502Z,4.03
2018-07-11T16:09:48.752Z,2.97
2018-07-11T16:12:17.208Z,3.90
2018-07-11T16:14:45.729Z,3.83
2018-07-11T16:17:14.087Z,2.57
2018-07-11T16:19:42.457Z,2.90
2018-07-11T16:22:10.844Z,5.90
2018-07-11T16:24:39.238Z,4.17
2018-07-11T16:27:07.578Z,3.37
2018-07-11T16:29:36.141Z,4.40
2018-07-11T16:32:04.407Z,3.13
2018-07-11T16:34:32.791Z,3.87
2018-07-11T16:37:00.853Z,3.63
2018-07-11T16:39:29.268Z,3.80
2018-07-11T16:41:57.689Z,4.20
2018-07-11T16:44:26.070Z,4.70
2018-07-11T16:46:54.454Z,3.93
2018-07-11T16:49:22.859Z,3.27
2018-07-11T16:51:50.984Z,3.90
2018-07-11T16:54:20.147Z,2.47
2018-07-11T16:56:49.203Z,4.70
2018-07-11T16:59:18.662Z,4.37
2018-07-11T17:01:55.010Z,5.73
2018-07-11T17:04:24.166Z,2.87
2018-07-11T17:06:53.455Z,6.57
2018-07-11T17:09:21.906Z,4.93
2018-07-11T17:11:51.968Z,4.03
2018-07-11T17:14:21.599Z,3.60
2018-07-11T17:16:52.958Z,3.43
2018-07-11T17:19:33.495Z,5.20
2018-07-11T17:22:04.333Z,3.87
2018-07-11T17:24:35.587Z,3.33
2018-07-11T17:27:03.954Z,4.00
2018-07-11T17:29:33.013Z,5.77
2018-07-11T17:32:09.830Z,4.17
2018-07-11T17:34:39.420Z,5.57
2018-07-11T17:37:09.060Z,4.43
2018-07-11T17:39:56.066Z,5.33
2018-07-11T17:42:29.562Z,7.20
2018-07-11T17:45:10.497Z,8.70
2018-07-11T17:47:50.727Z,7.47
2018-07-11T17:50:22.451Z,7.37
2018-07-11T17:53:00.777Z,9.37
2018-07-11T17:55:33.382Z,5.43
2018-07-11T17:58:07.702Z,5.67
2018-07-11T18:00:48.251Z,6.80
2018-07-11T18:03:29.562Z,7.70
2018-07-11T18:06:04.662Z,6.20
2018-07-11T18:08:40.221Z,6.17
2018-07-11T18:11:09.218Z,5.73
2018-07-11T18:13:42.289Z,6.43
2018-07-11T18:16:15.880Z,5.47
2018-07-11T18:18:45.357Z,6.23
2018-07-11T18:21:28.616Z,5.27
2018-07-11T18:24:10.375Z,5.47
2018-07-11T18:26:46.954Z,5.63
2018-07-11T18:29:25.786Z,6.20
2018-07-11T18:32:03.768Z,5.80
2018-07-11T18:35:44.867Z,5.10
2018-07-11T18:38:21.855Z,5.13
2018-07-11T18:41:00.836Z,4.47
2018-07-11T18:43:42.830Z,5.20
2018-07-11T18:46:57.220Z,5.40
2018-07-11T18:49:30.843Z,5.00
2018-07-11T18:52:22.154Z,5.73
2018-07-11T18:55:06.569Z,6.57
2018-07-11T18:57:44.296Z,4.73
2018-07-11T19:00:52.815Z,4.90
2018-07-11T19:03:30.311Z,6.27
2018-07-11T19:06:10.123Z,5.93
2018-07-11T19:08:58.274Z,5.03
2018-07-11T19:11:52.373Z,6.23
2018-07-11T19:14:27.444Z,5.03
2018-07-11T19:16:58.118Z,5.00
2018-07-11T19:19:32.913Z,6.53
2018-07-11T19:22:14.129Z,5.40
2018-07-11T19:24:48.427Z,5.37
2018-07-11T19:27:32.813Z,6.40
2018-07-11T19:30:11.784Z,6.13
2018-07-11T19:32:47.850Z,5.13
2018-07-11T19:35:17.812Z,5.53
2018-07-11T19:37:57.518Z,5.43
2018-07-11T19:40:43.778Z,8.60
2018-07-11T19:43:27.534Z,5.00
2018-07-11T19:46:05.943Z,6.03
2018-07-11T19:48:43.478Z,5.60
2018-07-11T19:51:38.500Z,7.37
2018-07-11T19:56:23.746Z,6.50
2018-07-11T19:58:52.193Z,5.83
2018-07-11T20:01:27.135Z,6.27
2018-07-11T20:03:55.542Z,6.70
2018-07-11T20:06:23.658Z,6.43
2018-07-11T20:08:52.579Z,7.57
2018-07-11T20:11:21.750Z,8.03
2018-07-11T20:13:51.159Z,6.87
2018-07-11T20:16:19.827Z,7.10
2018-07-11T20:18:48.099Z,7.07
2018-07-11T20:21:16.477Z,6.50
2018-07-11T20:23:44.839Z,7.03
2018-07-11T20:26:13.423Z,6.53
2018-07-11T20:28:42.177Z,7.43
2018-07-11T20:31:10.595Z,7.30
2018-07-11T20:33:38.967Z,8.73
2018-07-11T20:36:07.607Z,7.30
2018-07-11T20:38:36.262Z,7.10
2018-07-11T20:41:04.727Z,7.73
2018-07-11T20:43:33.192Z,7.30
2018-07-11T20:46:02.577Z,7.87
2018-07-11T20:48:31.207Z,6.87
2018-07-11T20:50:59.682Z,5.70
2018-07-11T20:53:28.302Z,7.40
2018-07-11T20:55:57.106Z,7.07
2018-07-11T20:58:37.163Z,9.13
2018-07-11T21:02:20.416Z,8.23
2018-07-11T21:07:12.455Z,7.47
2018-07-11T21:10:49.414Z,7.97
2018-07-11T21:13:59.350Z,8.30
2018-07-11T21:16:40.410Z,7.50
2018-07-11T21:19:09.984Z,8.13
2018-07-11T21:21:39.038Z,6.93
2018-07-11T21:24:08.457Z,7.73
2018-07-11T21:26:37.436Z,8.97
2018-07-11T21:29:05.894Z,8.77
2018-07-11T21:31:34.339Z,11.77
2018-07-11T21:34:02.760Z,12.07
2018-07-11T21:36:31.057Z,12.10
2018-07-11T21:38:59.434Z,11.00
2018-07-11T21:41:27.806Z,11.47
2018-07-11T21:43:56.182Z,13.23
2018-07-11T21:46:24.610Z,12.00
2018-07-11T21:48:52.644Z,10.90
2018-07-11T21:51:20.987Z,11.00
2018-07-11T21:53:49.345Z,11.73
2018-07-11T21:56:17.741Z,11.63
2018-07-11T21:58:46.123Z,11.70
2018-07-11T22:01:16.042Z,11.77
2018-07-11T22:03:44.471Z,11.03
2018-07-11T22:06:12.869Z,10.73
2018-07-11T22:08:41.247Z,11.70
2018-07-11T22:11:09.832Z,11.23
2018-07-11T22:13:37.928Z,11.50
2018-07-11T22:16:06.310Z,11.33
2018-07-11T22:18:38.222Z,12.77
2018-07-11T22:21:06.479Z,13.30
2018-07-11T22:23:33.751Z,13.67
2018-07-11T22:26:01.273Z,12.60
2018-07-11T22:28:28.576Z,15.03
2018-07-11T22:30:56.140Z,14.17
2018-07-11T22:33:23.494Z,14.47
2018-07-11T22:35:51.038Z,15.33
2018-07-11T22:38:18.299Z,15.07
2018-07-11T22:40:45.942Z,14.30
2018-07-11T22:43:13.226Z,13.27
2018-07-11T22:45:40.752Z,14.03
2018-07-11T22:48:07.999Z,14.27
2018-07-11T22:50:35.259Z,13.50
2018-07-11T22:53:02.544Z,14.67
2018-07-11T22:55:30.087Z,11.97
2018-07-11T22:57:57.358Z,13.60
2018-07-11T23:00:24.614Z,12.33
2018-07-11T23:02:51.880Z,13.77
2018-07-11T23:05:19.154Z,13.57
2018-07-11T23:07:46.449Z,12.60
2018-07-11T23:10:13.761Z,13.83
2018-07-11T23:12:41.051Z,13.47
2018-07-11T23:15:09.163Z,12.93
2018-07-11T23:17:36.443Z,13.67
2018-07-11T23:20:03.711Z,13.83
2018-07-11T23:22:30.977Z,14.70
2018-07-11T23:24:58.256Z,13.73
2018-07-11T23:27:25.783Z,14.63
2018-07-11T23:29:53.095Z,13.77
2018-07-11T23:32:20.387Z,14.07
2018-07-11T23:34:47.670Z,13.27
2018-07-11T23:37:15.189Z,12.10
2018-07-11T23:39:42.466Z,13.80
2018-07-11T23:42:09.743Z,12.63
2018-07-11T23:44:37.016Z,14.77
2018-07-11T23:47:04.262Z,13.40
2018-07-11T23:49:31.532Z,15.07
2018-07-11T23:51:58.808Z,14.27
2018-07-11T23:54:26.102Z,13.80
2018-07-11T23:56:53.601Z,14.50
2018-07-11T23:59:21.866Z,14.77
